Time;durP1;ratioP1;P1;durP2;ratioP2;P2;SDS_P1;SDS_P2;PMS_P1;PMS_P2;Temp;Humidity;BMP_temperature;BMP_pressure;BME280_temperature;BME280_humidity;BME280_pressure;Samples;Min_cycle;Max_cycle;Signal;HPM_P1;HPM_P2
2022/06/20 00:00:27;;;;;;;2.67;1.10;;;20.70;99.90;;;;;;1026697;28;20023;-71
2022/06/20 00:00:58;;;;;;;1.35;0.70;;;20.70;99.90;;;;;;1026303;28;20471;-73
2022/06/20 00:01:29;;;;;;;2.25;0.85;;;20.70;99.90;;;;;;1026358;28;20023;-73
2022/06/20 00:02:00;;;;;;;1.67;0.90;;;20.70;99.90;;;;;;1026443;28;20031;-74
2022/06/20 00:02:31;;;;;;;3.50;1.67;;;20.70;99.90;;;;;;1025104;28;20015;-71
2022/06/20 00:03:01;;;;;;;1.30;0.63;;;20.70;99.90;;;;;;1022756;29;20546;-74
2022/06/20 00:03:38;;;;;;;2.23;0.90;;;20.70;99.90;;;;;;1022978;28;20612;-73
2022/06/20 00:04:18;;;;;;;2.33;0.77;;;20.70;99.90;;;;;;1026692;28;20434;-74
2022/06/20 00:04:52;;;;;;;2.70;1.10;;;20.70;99.90;;;;;;1026607;28;20528;-73
2022/06/20 00:05:25;;;;;;;3.42;1.33;;;20.70;99.90;;;;;;1026813;28;20046;-73
2022/06/20 00:05:56;;;;;;;1.65;0.60;;;20.70;99.90;;;;;;1026662;28;20126;-73
2022/06/20 00:06:27;;;;;;;2.57;0.90;;;20.70;99.90;;;;;;1026554;28;20319;-73
2022/06/20 00:06:57;;;;;;;4.30;0.97;;;20.70;99.90;;;;;;1026969;28;20073;-72
2022/06/20 00:07:28;;;;;;;2.37;0.90;;;20.70;99.90;;;;;;1026493;28;20027;-73
2022/06/20 00:07:58;;;;;;;2.73;1.23;;;20.70;99.90;;;;;;1026817;28;20054;-71
2022/06/20 00:08:29;;;;;;;2.40;1.00;;;20.70;99.90;;;;;;1026610;28;20698;-72
2022/06/20 00:09:00;;;;;;;2.40;0.87;;;20.70;99.90;;;;;;1026768;28;20676;-74
2022/06/20 00:09:31;;;;;;;1.73;0.80;;;20.70;99.90;;;;;;1026725;28;20027;-73
2022/06/20 00:10:02;;;;;;;4.07;1.07;;;20.70;99.90;;;;;;1026732;28;20019;-72
2022/06/20 00:10:32;;;;;;;1.67;0.83;;;20.70;99.90;;;;;;1026635;28;20130;-73
2022/06/20 00:11:03;;;;;;;1.67;0.80;;;20.70;99.90;;;;;;1026618;28;20023;-73
2022/06/20 00:11:43;;;;;;;1.37;0.80;;;20.70;99.90;;;;;;1026742;28;20110;-74
2022/06/20 00:12:25;;;;;;;1.40;0.82;;;20.70;99.90;;;;;;1026893;28;20096;-71
2022/06/20 00:12:57;;;;;;;1.90;1.00;;;20.70;99.90;;;;;;1026847;28;20443;-73
2022/06/20 00:13:32;;;;;;;1.55;0.80;;;20.70;99.90;;;;;;1026358;28;20133;-72
2022/06/20 00:14:03;;;;;;;2.47;1.20;;;20.70;99.90;;;;;;1027549;28;20018;-69
2022/06/20 00:14:34;;;;;;;4.28;1.23;;;20.70;99.90;;;;;;1026841;28;20023;-73
2022/06/20 00:15:05;;;;;;;1.67;0.93;;;20.70;99.90;;;;;;1027290;28;20462;-73
2022/06/20 00:15:36;;;;;;;2.55;0.90;;;20.70;99.90;;;;;;1026853;28;20042;-74
2022/06/20 00:16:12;;;;;;;2.10;0.90;;;20.70;99.90;;;;;;1027338;28;20030;-74
2022/06/20 00:16:44;;;;;;;4.32;1.20;;;20.70;99.90;;;;;;1027399;28;20027;-72
2022/06/20 00:17:14;;;;;;;2.08;0.73;;;20.70;99.90;;;;;;1027482;28;20057;-72
2022/06/20 00:17:45;;;;;;;2.43;0.83;;;20.70;99.90;;;;;;1027229;28;20391;-73
2022/06/20 00:18:16;;;;;;;2.07;0.90;;;20.70;99.90;;;;;;1027551;28;20026;-73
2022/06/20 00:18:47;;;;;;;2.20;0.83;;;20.70;99.90;;;;;;1027235;28;20094;-72
2022/06/20 00:19:18;;;;;;;1.85;0.82;;;20.70;99.90;;;;;;1027678;28;20806;-72
2022/06/20 00:19:49;;;;;;;2.90;0.93;;;20.70;99.90;;;;;;1027315;28;20463;-72
2022/06/20 00:20:20;;;;;;;2.13;1.13;;;20.70;99.90;;;;;;1027577;28;20027;-73
2022/06/20 00:20:51;;;;;;;2.15;0.85;;;20.60;99.90;;;;;;1027333;28;20070;-73
2022/06/20 00:21:22;;;;;;;3.13;0.90;;;20.60;99.90;;;;;;1027592;28;20093;-73
2022/06/20 00:21:53;;;;;;;1.30;0.95;;;20.60;99.90;;;;;;1027211;28;20734;-72
2022/06/20 00:22:23;;;;;;;2.60;1.10;;;20.60;99.90;;;;;;1027491;28;20702;-73
2022/06/20 00:22:55;;;;;;;2.60;1.10;;;20.60;99.90;;;;;;1027338;28;20455;-73
2022/06/20 00:23:25;;;;;;;2.40;0.98;;;20.70;99.90;;;;;;1027448;28;20025;-72
2022/06/20 00:23:56;;;;;;;2.23;0.83;;;20.60;99.90;;;;;;1027468;28;20050;-73
2022/06/20 00:24:27;;;;;;;2.57;1.10;;;20.60;99.90;;;;;;1027425;28;20037;-73
2022/06/20 00:24:58;;;;;;;2.63;1.02;;;20.60;99.90;;;;;;1027451;28;20426;-73
2022/06/20 00:25:30;;;;;;;2.13;0.90;;;20.60;99.90;;;;;;1027348;28;20363;-73
2022/06/20 00:26:00;;;;;;;2.10;1.00;;;20.60;99.90;;;;;;1027482;28;20117;-73
2022/06/20 00:26:31;;;;;;;2.63;1.20;;;20.60;99.90;;;;;;1027229;28;20023;-73
2022/06/20 00:27:06;;;;;;;3.27;1.33;;;20.60;99.90;;;;;;1027429;28;20105;-73
2022/06/20 00:27:37;;;;;;;3.22;0.80;;;20.60;99.90;;;;;;1027449;28;20779;-74
2022/06/20 00:28:10;;;;;;;1.83;1.00;;;20.60;99.90;;;;;;1026981;28;20398;-72
2022/06/20 00:28:41;;;;;;;2.97;1.02;;;20.60;99.90;;;;;;1027190;28;20023;-72
2022/06/20 00:29:12;;;;;;;3.00;1.10;;;20.60;99.90;;;;;;1026829;28;20077;-71
2022/06/20 00:29:43;;;;;;;1.33;0.73;;;20.60;99.90;;;;;;1027236;28;20023;-68
2022/06/20 00:30:17;;;;;;;1.95;0.90;;;20.60;99.90;;;;;;1027456;28;20030;-72
2022/06/20 00:30:47;;;;;;;4.05;1.08;;;20.60;99.90;;;;;;1027320;28;20050;-71
2022/06/20 00:31:18;;;;;;;1.20;0.80;;;20.50;99.90;;;;;;1026948;28;20033;-72
2022/06/20 00:31:48;;;;;;;1.37;0.80;;;20.50;99.90;;;;;;1027272;28;20054;-72
2022/06/20 00:32:19;;;;;;;1.53;0.83;;;20.50;99.90;;;;;;1022775;28;20027;-69
2022/06/20 00:32:50;;;;;;;1.63;1.10;;;20.50;99.90;;;;;;1023214;28;20066;-73
2022/06/20 00:33:20;;;;;;;1.53;0.80;;;20.50;99.90;;;;;;1026997;28;20098;-73
2022/06/20 00:33:51;;;;;;;2.83;1.13;;;20.50;99.90;;;;;;1027053;28;20628;-73
2022/06/20 00:34:21;;;;;;;2.00;0.77;;;20.50;99.90;;;;;;1027345;28;20401;-72
2022/06/20 00:34:52;;;;;;;1.70;1.00;;;20.50;99.90;;;;;;1027448;28;20398;-71
2022/06/20 00:35:23;;;;;;;3.87;1.10;;;20.50;99.90;;;;;;1027211;28;20023;-69
2022/06/20 00:35:53;;;;;;;2.83;0.83;;;20.50;99.90;;;;;;1027377;28;20030;-72
2022/06/20 00:36:24;;;;;;;1.13;0.80;;;20.50;99.90;;;;;;1027283;28;20026;-73
2022/06/20 00:36:55;;;;;;;2.50;1.00;;;20.50;99.90;;;;;;1027477;28;20526;-73
2022/06/20 00:37:26;;;;;;;1.40;0.70;;;20.50;99.90;;;;;;1027229;28;20757;-74
2022/06/20 00:37:58;;;;;;;2.85;1.00;;;20.50;99.90;;;;;;1027044;28;20022;-73
2022/06/20 00:38:30;;;;;;;2.35;1.00;;;20.50;99.90;;;;;;1026874;28;20050;-72
2022/06/20 00:39:00;;;;;;;2.30;0.80;;;20.50;99.90;;;;;;1027100;28;20058;-72
2022/06/20 00:39:31;;;;;;;1.20;0.60;;;20.50;99.90;;;;;;1026954;28;20031;-73
2022/06/20 00:40:03;;;;;;;1.03;0.70;;;20.50;99.90;;;;;;1027430;28;20030;-71
2022/06/20 00:40:39;;;;;;;1.23;0.63;;;20.50;99.90;;;;;;1027327;28;20542;-72
2022/06/20 00:41:16;;;;;;;3.35;1.30;;;20.50;99.90;;;;;;1027338;28;20030;-72
2022/06/20 00:41:48;;;;;;;3.17;1.13;;;20.50;99.90;;;;;;1027245;28;20026;-72
2022/06/20 00:42:19;;;;;;;3.78;1.00;;;20.50;99.90;;;;;;1027018;28;20419;-72
2022/06/20 00:42:51;;;;;;;3.50;1.23;;;20.50;99.90;;;;;;1026917;28;20468;-72
2022/06/20 00:43:26;;;;;;;1.17;0.80;;;20.50;99.90;;;;;;1027055;28;20573;-72
2022/06/20 00:43:57;;;;;;;2.25;0.80;;;20.50;99.90;;;;;;1026861;28;20390;-72
2022/06/20 00:44:35;;;;;;;2.45;1.27;;;20.50;99.90;;;;;;1027011;28;20157;-73
2022/06/20 00:45:06;;;;;;;2.97;0.95;;;20.50;99.90;;;;;;1026940;28;20065;-74
2022/06/20 00:45:42;;;;;;;1.75;0.95;;;20.50;99.90;;;;;;1027053;28;20023;-74
2022/06/20 00:46:22;;;;;;;1.92;0.90;;;20.50;99.90;;;;;;1027087;28;20018;-72
2022/06/20 00:46:59;;;;;;;1.77;0.80;;;20.50;99.90;;;;;;1027387;28;20022;-73
2022/06/20 00:47:34;;;;;;;3.80;1.20;;;20.50;99.90;;;;;;1027116;28;20426;-73
2022/06/20 00:48:14;;;;;;;1.77;0.80;;;20.50;99.90;;;;;;1027139;28;20103;-71
2022/06/20 00:49:12;;;;;;;2.45;1.00;;;20.50;99.90;;;;;;1027191;28;20110;-73
2022/06/20 00:50:01;;;;;;;4.22;1.13;;;20.50;99.90;;;;;;1023159;28;20019;-71
2022/06/20 00:50:33;;;;;;;2.17;0.95;;;20.50;99.90;;;;;;1027233;28;20061;-72
2022/06/20 00:51:18;;;;;;;2.03;0.85;;;20.50;99.90;;;;;;1027290;28;20022;-72
2022/06/20 00:51:54;;;;;;;1.67;1.00;;;20.50;99.90;;;;;;1027379;28;20023;-72
2022/06/20 00:52:43;;;;;;;2.30;0.98;;;20.50;99.90;;;;;;1027097;28;20073;-73
2022/06/20 00:53:37;;;;;;;2.50;1.23;;;20.50;99.90;;;;;;1027288;28;20019;-73
2022/06/20 00:54:38;;;;;;;1.90;0.80;;;20.50;99.90;;;;;;1027313;28;20170;-72
2022/06/20 00:55:20;;;;;;;1.95;1.17;;;20.50;99.90;;;;;;1027343;28;20073;-74
2022/06/20 00:55:58;;;;;;;1.88;0.75;;;20.50;99.90;;;;;;1026926;28;20015;-73
2022/06/20 00:56:38;;;;;;;2.25;0.93;;;20.50;99.90;;;;;;1027092;28;20025;-73
2022/06/20 00:57:44;;;;;;;3.45;0.85;;;20.50;99.90;;;;;;1027393;28;20018;-72
2022/06/20 00:58:30;;;;;;;2.28;0.80;;;20.50;99.90;;;;;;1019942;28;20030;-72
2022/06/20 00:59:07;;;;;;;1.20;0.80;;;20.40;99.90;;;;;;1027391;28;20019;-72
2022/06/20 00:59:44;;;;;;;2.83;1.23;;;20.40;99.90;;;;;;1027342;28;20018;-72
2022/06/20 01:00:22;;;;;;;2.55;1.42;;;20.40;99.90;;;;;;1027556;28;20389;-71
2022/06/20 01:00:53;;;;;;;1.35;0.80;;;20.40;99.90;;;;;;1027334;28;20104;-70
2022/06/20 01:01:32;;;;;;;3.08;0.95;;;20.40;99.90;;;;;;1027397;28;20018;-69
2022/06/20 01:02:06;;;;;;;2.55;1.05;;;20.50;99.90;;;;;;1027254;28;20022;-72
2022/06/20 01:02:43;;;;;;;0.90;0.77;;;20.40;99.90;;;;;;1025270;28;20379;-73
2022/06/20 01:03:20;;;;;;;3.97;1.33;;;20.40;99.90;;;;;;1023330;29;20047;-71
2022/06/20 01:03:55;;;;;;;2.65;0.93;;;20.40;99.90;;;;;;1026270;28;20052;-71
2022/06/20 01:04:35;;;;;;;2.67;1.05;;;20.40;99.90;;;;;;1027146;28;20105;-71
2022/06/20 01:05:18;;;;;;;2.90;1.10;;;20.40;99.90;;;;;;1027248;28;20446;-72
2022/06/20 01:05:57;;;;;;;2.17;0.82;;;20.40;99.90;;;;;;1027190;28;20027;-72
2022/06/20 01:06:37;;;;;;;3.05;1.30;;;20.40;99.90;;;;;;1027290;28;20015;-72
2022/06/20 01:07:16;;;;;;;3.35;1.30;;;20.40;99.90;;;;;;1027162;28;20437;-72
2022/06/20 01:08:02;;;;;;;1.15;0.88;;;20.40;99.90;;;;;;1027202;28;20477;-72
2022/06/20 01:08:40;;;;;;;1.77;0.82;;;20.40;99.90;;;;;;1027244;28;20022;-72
2022/06/20 01:09:13;;;;;;;2.58;1.38;;;20.40;99.90;;;;;;1027158;28;20425;-72
2022/06/20 01:09:46;;;;;;;2.58;0.82;;;20.40;99.90;;;;;;1027344;28;20556;-72
2022/06/20 01:10:18;;;;;;;1.67;0.90;;;20.40;99.90;;;;;;1027103;28;20086;-72
2022/06/20 01:10:59;;;;;;;3.03;1.17;;;20.40;99.90;;;;;;1026782;28;20031;-71
2022/06/20 01:11:52;;;;;;;1.90;0.95;;;20.40;99.90;;;;;;1026809;28;20015;-73
2022/06/20 01:12:26;;;;;;;1.67;0.80;;;20.40;99.90;;;;;;1026612;28;20018;-70
2022/06/20 01:13:01;;;;;;;2.28;1.25;;;20.40;99.90;;;;;;1027554;28;20089;-73
2022/06/20 01:13:32;;;;;;;1.88;1.00;;;20.40;99.90;;;;;;1027146;28;20116;-73
2022/06/20 01:14:34;;;;;;;2.47;1.10;;;20.40;99.90;;;;;;1027088;28;20026;-70
2022/06/20 01:15:20;;;;;;;2.53;0.93;;;20.40;99.90;;;;;;1027243;28;20270;-72
2022/06/20 01:15:53;;;;;;;2.47;0.98;;;20.40;99.90;;;;;;1027118;28;20023;-72
2022/06/20 01:16:27;;;;;;;2.95;0.90;;;20.40;99.90;;;;;;1027111;28;20114;-72
2022/06/20 01:16:59;;;;;;;5.55;1.20;;;20.40;99.90;;;;;;1027304;28;20074;-74
2022/06/20 01:17:35;;;;;;;2.03;1.17;;;20.40;99.90;;;;;;1027063;28;20015;-73
2022/06/20 01:18:19;;;;;;;1.60;0.85;;;20.40;99.90;;;;;;1027334;28;20053;-73
2022/06/20 01:18:50;;;;;;;2.05;1.00;;;20.40;99.90;;;;;;1027209;28;20022;-73
2022/06/20 01:19:36;;;;;;;2.90;1.00;;;20.40;99.90;;;;;;1027247;28;20018;-72
2022/06/20 01:20:17;;;;;;;2.47;1.00;;;20.40;99.90;;;;;;1027237;28;20496;-72
2022/06/20 01:20:50;;;;;;;1.58;0.95;;;20.40;99.90;;;;;;1026997;28;20102;-72
2022/06/20 01:21:30;;;;;;;2.47;0.93;;;20.40;99.90;;;;;;1027400;28;20090;-72
2022/06/20 01:22:08;;;;;;;3.22;0.85;;;20.40;99.90;;;;;;1027256;28;20011;-72
2022/06/20 01:23:00;;;;;;;2.15;0.80;;;20.40;99.90;;;;;;1026767;28;20545;-71
2022/06/20 01:23:59;;;;;;;1.65;0.90;;;20.40;99.90;;;;;;1026664;28;20844;-72
2022/06/20 01:24:38;;;;;;;3.03;1.02;;;20.40;99.90;;;;;;1026985;28;20425;-73
2022/06/20 01:25:25;;;;;;;1.38;0.80;;;20.40;99.90;;;;;;1026642;28;20021;-73
2022/06/20 01:26:20;;;;;;;1.70;0.93;;;20.40;99.90;;;;;;1027114;28;20031;-70
2022/06/20 01:27:25;;;;;;;4.32;1.13;;;20.40;99.90;;;;;;1027247;28;20135;-71
2022/06/20 01:27:56;;;;;;;1.92;1.15;;;20.40;99.90;;;;;;1027375;28;20113;-74
2022/06/20 01:28:30;;;;;;;2.90;1.03;;;20.50;99.90;;;;;;1027129;28;20042;-73
2022/06/20 01:29:05;;;;;;;1.55;0.82;;;20.50;99.90;;;;;;1027274;28;20050;-72
2022/06/20 01:29:35;;;;;;;1.50;1.00;;;20.40;99.90;;;;;;1027330;28;20014;-73
2022/06/20 01:30:06;;;;;;;2.23;0.90;;;20.40;99.90;;;;;;1027192;28;20019;-73
2022/06/20 01:30:41;;;;;;;2.58;1.02;;;20.40;99.90;;;;;;1027140;28;20014;-71
2022/06/20 01:31:14;;;;;;;1.92;0.90;;;20.40;99.90;;;;;;1027068;28;20363;-72
2022/06/20 01:31:54;;;;;;;3.17;1.00;;;20.40;99.90;;;;;;1027191;28;20485;-72
2022/06/20 01:32:25;;;;;;;1.92;0.80;;;20.40;99.90;;;;;;1026701;28;20030;-72
2022/06/20 01:32:57;;;;;;;2.60;1.13;;;20.40;99.90;;;;;;1027119;28;20022;-72
2022/06/20 01:33:28;;;;;;;1.80;1.13;;;20.40;99.90;;;;;;1022734;29;20299;-71
2022/06/20 01:34:01;;;;;;;1.53;0.70;;;20.40;99.90;;;;;;1023290;28;20020;-72
2022/06/20 01:34:32;;;;;;;2.58;1.15;;;20.40;99.90;;;;;;1026555;28;20406;-72
2022/06/20 01:35:08;;;;;;;1.55;0.80;;;20.40;99.90;;;;;;1026993;28;20109;-71
2022/06/20 01:37:23;;;;;;;2.55;1.15;;;20.40;99.90;;;;;;1027096;28;20066;-71
2022/06/20 01:37:54;;;;;;;1.63;0.85;;;20.40;99.90;;;;;;1027290;28;20482;-73
2022/06/20 01:38:25;;;;;;;2.30;0.83;;;20.40;99.90;;;;;;1027048;28;20748;-73
2022/06/20 01:38:57;;;;;;;1.47;0.73;;;20.40;99.90;;;;;;1026828;28;20117;-72
2022/06/20 01:39:28;;;;;;;1.58;0.90;;;20.40;99.90;;;;;;1026629;28;20080;-73
2022/06/20 01:40:05;;;;;;;2.03;1.17;;;20.40;99.90;;;;;;1026931;28;20031;-72
2022/06/20 01:40:36;;;;;;;1.90;0.90;;;20.40;99.90;;;;;;1026844;28;20466;-72
2022/06/20 01:42:47;;;;;;;3.63;0.98;;;20.40;99.90;;;;;;1026930;28;20034;-73
2022/06/20 01:43:17;;;;;;;2.57;1.03;;;20.40;99.90;;;;;;1027305;28;20105;-72
2022/06/20 01:43:48;;;;;;;2.13;0.80;;;20.40;99.90;;;;;;1026917;28;20031;-69
2022/06/20 01:44:20;;;;;;;3.07;0.93;;;20.40;99.90;;;;;;1027044;28;20534;-72
2022/06/20 01:45:03;;;;;;;1.55;0.85;;;20.40;99.90;;;;;;1026998;28;20030;-71
2022/06/20 01:46:30;;;;;;;1.40;0.90;;;20.40;99.90;;;;;;1027014;28;20082;-72
2022/06/20 01:47:00;;;;;;;2.13;1.02;;;20.40;99.90;;;;;;1026961;28;20022;-72
2022/06/20 01:47:32;;;;;;;2.00;0.93;;;20.40;99.90;;;;;;1027130;28;20121;-72
2022/06/20 01:48:07;;;;;;;3.42;1.05;;;20.40;99.90;;;;;;1026976;28;20031;-70
2022/06/20 01:48:50;;;;;;;1.73;1.00;;;20.40;99.90;;;;;;1027265;28;20122;-73
2022/06/20 01:49:24;;;;;;;1.75;1.00;;;20.40;99.90;;;;;;1027187;28;20021;-72
2022/06/20 01:50:01;;;;;;;1.98;0.90;;;20.40;99.90;;;;;;1022559;29;20657;-72
2022/06/20 01:50:32;;;;;;;1.25;0.70;;;20.40;99.90;;;;;;1022540;29;20522;-72
2022/06/20 01:51:07;;;;;;;2.05;0.90;;;20.40;99.90;;;;;;1018696;29;20020;-71
2022/06/20 01:51:53;;;;;;;1.67;0.80;;;20.40;99.90;;;;;;1020438;29;20019;-72
2022/06/20 01:52:50;;;;;;;1.88;0.90;;;20.40;99.90;;;;;;1022477;29;20451;-72
2022/06/20 01:53:31;;;;;;;3.38;0.90;;;20.40;99.90;;;;;;1025295;28;20043;-70
2022/06/20 01:54:03;;;;;;;2.42;0.80;;;20.40;99.90;;;;;;1027124;28;20061;-72
2022/06/20 01:54:39;;;;;;;1.45;0.77;;;20.40;99.90;;;;;;1026976;28;20050;-73
2022/06/20 01:55:14;;;;;;;1.23;0.80;;;20.40;99.90;;;;;;1026494;28;20042;-71
2022/06/20 01:55:51;;;;;;;5.32;1.27;;;20.40;99.90;;;;;;1026379;28;20019;-72
2022/06/20 01:56:24;;;;;;;1.73;0.65;;;20.40;99.90;;;;;;1026704;28;20019;-72
2022/06/20 01:56:55;;;;;;;2.47;1.10;;;20.40;99.90;;;;;;1026890;28;20022;-71
2022/06/20 01:57:28;;;;;;;1.27;0.73;;;20.40;99.90;;;;;;1030620;28;20164;-70
2022/06/20 01:58:11;;;;;;;3.22;0.93;;;20.40;99.90;;;;;;1030758;28;20033;-71
2022/06/20 01:58:49;;;;;;;2.70;0.90;;;20.40;99.90;;;;;;1030653;28;20023;-71
2022/06/20 01:59:24;;;;;;;1.13;0.90;;;20.40;99.90;;;;;;1027967;28;20026;-72
2022/06/20 02:00:03;;;;;;;1.90;1.10;;;20.40;99.90;;;;;;1027131;28;20035;-71
2022/06/20 02:00:34;;;;;;;3.40;1.35;;;20.40;99.90;;;;;;1027143;28;20022;-71
2022/06/20 02:01:05;;;;;;;2.23;0.87;;;20.40;99.90;;;;;;1027153;28;20027;-71
2022/06/20 02:01:37;;;;;;;0.70;0.70;;;20.40;99.90;;;;;;1027086;28;20065;-72
2022/06/20 02:02:08;;;;;;;2.13;1.00;;;20.40;99.90;;;;;;1026963;28;20022;-72
2022/06/20 02:02:44;;;;;;;3.03;0.97;;;20.40;99.90;;;;;;1024748;28;20038;-72
2022/06/20 02:03:18;;;;;;;1.75;0.85;;;20.40;99.90;;;;;;1022862;28;20723;-72
2022/06/20 02:03:48;;;;;;;1.45;0.93;;;20.40;99.90;;;;;;1027577;28;20032;-72
2022/06/20 02:04:23;;;;;;;3.53;1.07;;;20.40;99.90;;;;;;1030819;28;20176;-71
2022/06/20 02:04:54;;;;;;;2.22;0.90;;;20.40;99.90;;;;;;1029487;28;20026;-70
2022/06/20 02:05:27;;;;;;;0.87;0.60;;;20.40;99.90;;;;;;1030702;28;20030;-73
2022/06/20 02:05:59;;;;;;;1.77;0.80;;;20.40;99.90;;;;;;1030649;28;20708;-73
2022/06/20 02:06:30;;;;;;;4.18;1.05;;;20.40;99.90;;;;;;1028231;28;20519;-72
2022/06/20 02:07:05;;;;;;;3.15;1.10;;;20.40;99.90;;;;;;1026563;28;20023;-72
2022/06/20 02:07:36;;;;;;;2.53;1.25;;;20.40;99.90;;;;;;1027182;28;20023;-72
2022/06/20 02:08:07;;;;;;;2.47;1.13;;;20.40;99.90;;;;;;1026835;28;20042;-73
2022/06/20 02:08:40;;;;;;;2.63;1.30;;;20.40;99.90;;;;;;1027202;28;20306;-72
2022/06/20 02:09:13;;;;;;;1.50;0.70;;;20.40;99.90;;;;;;1026718;28;20027;-72
2022/06/20 02:09:44;;;;;;;1.20;0.75;;;20.40;99.90;;;;;;1027018;28;20025;-71
2022/06/20 02:10:21;;;;;;;3.90;1.00;;;20.40;99.90;;;;;;1026817;28;20037;-72
2022/06/20 02:11:09;;;;;;;3.28;1.17;;;20.40;99.90;;;;;;1026963;28;20038;-71
2022/06/20 02:11:46;;;;;;;;;;;20.40;99.90;;;;;;1027619;28;20019;-70
2022/06/20 02:12:18;;;;;;;2.90;1.08;;;20.40;99.90;;;;;;1026435;28;19916;-72
2022/06/20 02:12:50;;;;;;;1.60;0.88;;;20.30;99.90;;;;;;1026837;28;20134;-71
2022/06/20 02:13:24;;;;;;;2.30;1.15;;;20.30;99.90;;;;;;1026461;28;20069;-72
2022/06/20 02:14:01;;;;;;;3.90;1.08;;;20.30;99.90;;;;;;1027077;28;20095;-71
2022/06/20 02:14:42;;;;;;;3.50;0.93;;;20.30;99.90;;;;;;1026956;28;20490;-72
2022/06/20 02:15:31;;;;;;;1.45;0.75;;;20.30;99.90;;;;;;1026961;28;20126;-72
2022/06/20 02:16:06;;;;;;;2.10;0.85;;;20.30;99.90;;;;;;1027224;28;20102;-71
2022/06/20 02:16:41;;;;;;;3.05;0.80;;;20.30;99.90;;;;;;1027094;28;20023;-72
2022/06/20 02:17:21;;;;;;;2.80;1.05;;;20.30;99.90;;;;;;1026894;28;20030;-72
2022/06/20 02:17:53;;;;;;;1.48;0.73;;;20.30;99.90;;;;;;1027259;28;20023;-72
2022/06/20 02:18:30;;;;;;;2.90;1.10;;;20.30;99.90;;;;;;1026883;28;20031;-71
2022/06/20 02:19:04;;;;;;;2.22;0.85;;;20.30;99.90;;;;;;1027160;28;20019;-72
2022/06/20 02:19:42;;;;;;;1.25;0.80;;;20.30;99.90;;;;;;1026973;28;20091;-71
2022/06/20 02:20:18;;;;;;;3.65;1.17;;;20.30;99.90;;;;;;1027135;28;20123;-71
2022/06/20 02:20:52;;;;;;;3.47;1.08;;;20.30;99.90;;;;;;1027103;28;20387;-71
2022/06/20 02:21:26;;;;;;;2.65;0.90;;;20.30;99.90;;;;;;1022503;29;20027;-72
2022/06/20 02:22:02;;;;;;;2.25;0.88;;;20.30;99.90;;;;;;1021972;29;20034;-72
2022/06/20 02:22:35;;;;;;;4.30;1.20;;;20.20;99.90;;;;;;1018643;29;20690;-70
2022/06/20 02:23:07;;;;;;;1.95;1.00;;;20.30;99.90;;;;;;1022030;28;20027;-72
2022/06/20 02:23:43;;;;;;;3.20;1.15;;;20.30;99.90;;;;;;1027927;28;20027;-72
2022/06/20 02:24:18;;;;;;;2.83;0.95;;;20.30;99.90;;;;;;1030852;28;20105;-72
2022/06/20 02:24:54;;;;;;;1.73;0.80;;;20.30;99.90;;;;;;1030475;28;20471;-71
2022/06/20 02:25:31;;;;;;;3.75;1.00;;;20.30;99.90;;;;;;1027420;28;20023;-72
2022/06/20 02:26:05;;;;;;;2.22;0.80;;;20.30;99.90;;;;;;1026471;28;20413;-72
2022/06/20 02:26:37;;;;;;;2.78;0.85;;;20.20;99.90;;;;;;1026877;28;20529;-71
2022/06/20 02:27:13;;;;;;;4.07;1.15;;;20.30;99.90;;;;;;1026967;28;20030;-72
2022/06/20 02:27:50;;;;;;;3.15;1.02;;;20.20;99.90;;;;;;1026818;28;20114;-72
2022/06/20 02:28:28;;;;;;;1.95;0.90;;;20.20;99.90;;;;;;1026926;28;20096;-71
2022/06/20 02:29:09;;;;;;;1.80;0.90;;;20.20;99.90;;;;;;1027034;28;20023;-72
2022/06/20 02:29:40;;;;;;;2.83;0.98;;;20.20;99.90;;;;;;1027122;28;20033;-71
2022/06/20 02:30:12;;;;;;;2.80;1.17;;;20.20;99.90;;;;;;1026796;28;20046;-72
2022/06/20 02:30:42;;;;;;;2.25;1.30;;;20.20;99.90;;;;;;1027051;28;20049;-72
2022/06/20 02:31:13;;;;;;;1.63;0.77;;;20.20;99.90;;;;;;1026759;28;20066;-70
2022/06/20 02:31:44;;;;;;;2.40;1.10;;;20.20;99.90;;;;;;1027061;28;20270;-70
2022/06/20 02:32:20;;;;;;;3.63;1.27;;;20.20;99.90;;;;;;1026778;28;20026;-71
2022/06/20 02:33:00;;;;;;;1.70;1.00;;;20.20;99.90;;;;;;1026509;28;20502;-72
2022/06/20 02:33:31;;;;;;;3.63;1.02;;;20.20;99.90;;;;;;1026499;28;20029;-72
2022/06/20 02:34:02;;;;;;;1.57;0.70;;;20.20;99.90;;;;;;1026579;28;20015;-72
2022/06/20 02:34:32;;;;;;;3.55;0.90;;;20.20;99.90;;;;;;1026636;28;20054;-72
2022/06/20 02:35:06;;;;;;;1.50;0.93;;;20.20;99.90;;;;;;1026546;28;20029;-70
2022/06/20 02:35:37;;;;;;;1.15;0.63;;;20.20;99.90;;;;;;1026623;28;20624;-72
2022/06/20 02:36:08;;;;;;;1.27;0.68;;;20.20;99.90;;;;;;1026845;28;20027;-71
2022/06/20 02:36:39;;;;;;;1.70;0.87;;;20.20;99.90;;;;;;1026815;28;20046;-71
2022/06/20 02:37:13;;;;;;;1.85;0.90;;;20.20;99.90;;;;;;1026036;28;20029;-72
2022/06/20 02:37:45;;;;;;;1.38;0.88;;;20.20;99.90;;;;;;1026208;28;20498;-72
2022/06/20 02:38:16;;;;;;;2.55;1.00;;;20.30;99.90;;;;;;1026489;28;20081;-71
2022/06/20 02:38:47;;;;;;;1.63;0.80;;;20.20;99.90;;;;;;1026510;28;20086;-72
2022/06/20 02:39:19;;;;;;;2.20;0.90;;;20.30;99.90;;;;;;1026642;28;20440;-71
2022/06/20 02:40:00;;;;;;;2.85;1.23;;;20.30;99.90;;;;;;1026872;28;20026;-72
2022/06/20 02:40:31;;;;;;;1.80;0.80;;;20.30;99.90;;;;;;1026578;28;20077;-71
2022/06/20 02:41:02;;;;;;;1.67;0.82;;;20.30;99.90;;;;;;1026882;28;20106;-72
2022/06/20 02:41:34;;;;;;;2.67;0.80;;;20.30;99.90;;;;;;1026939;28;20119;-73
2022/06/20 02:42:09;;;;;;;3.15;1.05;;;20.30;99.90;;;;;;1026991;28;20050;-71
2022/06/20 02:42:55;;;;;;;1.13;0.80;;;20.30;99.90;;;;;;1026856;28;20471;-72
2022/06/20 02:43:37;;;;;;;3.05;1.05;;;20.30;99.90;;;;;;1026384;28;20038;-71
2022/06/20 02:44:17;;;;;;;4.68;1.15;;;20.30;99.90;;;;;;1026528;28;20015;-72
2022/06/20 02:44:49;;;;;;;2.78;1.02;;;20.30;99.90;;;;;;1026462;28;20027;-72
2022/06/20 02:45:21;;;;;;;2.30;1.05;;;20.30;99.90;;;;;;1026948;28;20522;-72
2022/06/20 02:45:56;;;;;;;1.85;1.15;;;20.30;99.90;;;;;;1026560;28;20609;-71
2022/06/20 02:46:28;;;;;;;4.43;1.10;;;20.30;99.90;;;;;;1026862;28;20046;-70
2022/06/20 02:47:03;;;;;;;1.17;0.90;;;20.30;99.90;;;;;;1026899;28;20015;-70
2022/06/20 02:47:37;;;;;;;2.42;0.90;;;20.30;99.90;;;;;;1027105;28;20025;-70
2022/06/20 02:48:10;;;;;;;2.58;1.00;;;20.30;99.90;;;;;;1026772;28;20023;-71
2022/06/20 02:48:45;;;;;;;1.70;1.00;;;20.30;99.90;;;;;;1026807;28;20033;-71
2022/06/20 02:49:19;;;;;;;3.33;1.00;;;20.30;99.90;;;;;;1030386;28;20572;-72
2022/06/20 02:49:54;;;;;;;3.05;1.08;;;20.30;99.90;;;;;;1030764;28;20030;-72
2022/06/20 02:50:30;;;;;;;2.35;0.90;;;20.20;99.90;;;;;;1026388;28;20534;-71
2022/06/20 02:51:03;;;;;;;2.55;1.13;;;20.20;99.90;;;;;;1026685;28;20011;-71
2022/06/20 02:51:37;;;;;;;1.80;1.13;;;20.20;99.90;;;;;;1026590;28;20024;-71
2022/06/20 02:52:11;;;;;;;1.63;0.77;;;20.30;99.90;;;;;;1026735;28;20015;-70
2022/06/20 02:52:51;;;;;;;3.55;1.70;;;20.20;99.90;;;;;;1027157;28;20049;-71
2022/06/20 02:53:56;;;;;;;4.50;0.98;;;20.20;99.90;;;;;;1026509;28;20086;-70
2022/06/20 02:54:29;;;;;;;2.05;1.02;;;20.20;99.90;;;;;;1014070;29;20032;-70
2022/06/20 02:55:00;;;;;;;1.70;0.90;;;20.20;99.90;;;;;;1015533;29;20425;-71
2022/06/20 02:55:35;;;;;;;3.60;1.57;;;20.20;99.90;;;;;;1022033;28;20503;-70
2022/06/20 02:56:08;;;;;;;1.88;0.90;;;20.20;99.90;;;;;;1022225;29;20337;-71
2022/06/20 02:56:44;;;;;;;2.25;1.00;;;20.20;99.90;;;;;;1022529;29;20034;-70
2022/06/20 02:57:41;;;;;;;2.28;1.13;;;20.20;99.90;;;;;;1020364;29;20046;-71
2022/06/20 02:58:17;;;;;;;0.80;0.60;;;20.20;99.90;;;;;;1020973;28;20058;-70
2022/06/20 02:58:57;;;;;;;2.80;0.88;;;20.20;99.90;;;;;;1026596;28;20027;-70
2022/06/20 02:59:34;;;;;;;3.35;1.00;;;20.20;99.90;;;;;;1026748;28;20709;-71
2022/06/20 03:00:11;;;;;;;3.75;1.27;;;20.20;99.90;;;;;;1027421;28;20023;-70
2022/06/20 03:00:52;;;;;;;1.60;1.02;;;20.20;99.90;;;;;;1026762;28;20092;-71
2022/06/20 03:01:52;;;;;;;1.73;1.02;;;20.20;99.90;;;;;;1026851;28;20110;-71
2022/06/20 03:02:27;;;;;;;3.78;1.45;;;20.20;99.90;;;;;;1026652;28;20030;-69
2022/06/20 03:03:09;;;;;;;2.28;1.00;;;20.20;99.90;;;;;;1023257;28;20109;-71
2022/06/20 03:03:48;;;;;;;2.17;1.00;;;20.20;99.90;;;;;;1024339;28;20031;-69
2022/06/20 03:04:22;;;;;;;3.53;1.10;;;20.20;99.90;;;;;;1027137;28;20045;-71
2022/06/20 03:04:53;;;;;;;1.95;1.10;;;20.20;99.90;;;;;;1026518;28;20017;-71
2022/06/20 03:05:25;;;;;;;2.33;1.00;;;20.10;99.90;;;;;;1022661;29;20023;-70
2022/06/20 03:05:56;;;;;;;1.88;0.85;;;20.10;99.90;;;;;;1022455;29;20019;-71
2022/06/20 03:06:32;;;;;;;1.15;0.77;;;20.20;99.90;;;;;;1018628;29;20024;-69
2022/06/20 03:07:16;;;;;;;3.45;1.20;;;20.20;99.90;;;;;;1023693;28;20545;-68
2022/06/20 03:07:49;;;;;;;3.50;1.05;;;20.10;99.90;;;;;;1026609;28;20690;-71
2022/06/20 03:08:21;;;;;;;3.85;0.95;;;20.20;99.90;;;;;;1026686;28;20094;-71
2022/06/20 03:08:53;;;;;;;1.90;1.00;;;20.10;99.90;;;;;;1026778;28;20015;-71
2022/06/20 03:09:28;;;;;;;1.70;0.82;;;20.10;99.90;;;;;;1026837;28;20540;-71